createdAt,value
2023-01-11T00:01:10.638Z,1.02
2023-01-11T00:03:38.482Z,1.02
2023-01-11T00:06:08.073Z,0.93
2023-01-11T00:08:35.812Z,0.90
2023-01-11T00:11:04.100Z,0.60
2023-01-11T00:13:32.132Z,0.70
2023-01-11T00:16:06.945Z,0.60
2023-01-11T00:18:34.832Z,0.57
2023-01-11T00:21:09.368Z,0.77
2023-01-11T00:23:38.316Z,0.82
2023-01-11T00:26:07.883Z,0.80
2023-01-11T00:28:35.927Z,0.70
2023-01-11T00:31:03.995Z,0.85
2023-01-11T00:33:31.860Z,0.80
2023-01-11T00:35:59.691Z,0.90
2023-01-11T00:38:46.444Z,0.80
2023-01-11T00:41:33.867Z,0.70
2023-01-11T00:44:20.615Z,0.80
2023-01-11T00:47:06.838Z,1.05
2023-01-11T00:49:34.712Z,0.70
2023-01-11T00:52:05.677Z,0.65
2023-01-11T00:54:33.392Z,1.23
2023-01-11T00:57:01.186Z,0.85
2023-01-11T00:59:29.039Z,0.60
2023-01-11T01:01:56.750Z,0.70
2023-01-11T01:04:24.652Z,0.90
2023-01-11T01:06:52.460Z,0.68
2023-01-11T01:09:20.348Z,0.77
2023-01-11T01:11:48.026Z,0.40
2023-01-11T01:14:31.459Z,0.70
2023-01-11T01:17:09.419Z,0.70
2023-01-11T01:19:38.968Z,0.60
2023-01-11T01:22:06.609Z,0.70
2023-01-11T01:24:35.275Z,1.27
2023-01-11T01:27:02.924Z,0.63
2023-01-11T01:29:30.783Z,0.70
2023-01-11T01:32:01.537Z,1.00
2023-01-11T01:34:29.504Z,0.70
2023-01-11T01:36:57.441Z,0.63
2023-01-11T01:39:25.180Z,0.70
2023-01-11T01:41:53.032Z,0.73
2023-01-11T01:44:57.387Z,0.77
2023-01-11T01:47:49.490Z,0.63
2023-01-11T01:50:32.217Z,0.60
2023-01-11T01:53:12.901Z,0.70
2023-01-11T01:55:43.725Z,0.55
2023-01-11T01:58:13.953Z,0.60
2023-01-11T02:00:43.670Z,0.63
2023-01-11T02:03:19.512Z,0.52
2023-01-11T02:05:47.412Z,0.73
2023-01-11T02:08:37.332Z,0.80
2023-01-11T02:11:27.075Z,0.70
2023-01-11T02:14:07.420Z,0.50
2023-01-11T02:16:35.419Z,0.95
2023-01-11T02:19:03.353Z,0.50
2023-01-11T02:21:34.506Z,0.70
2023-01-11T02:24:32.555Z,0.68
2023-01-11T02:27:03.431Z,0.52
2023-01-11T02:29:39.629Z,0.47
2023-01-11T02:32:48.172Z,0.52
2023-01-11T02:35:32.421Z,0.60
2023-01-11T02:38:03.776Z,0.60
2023-01-11T02:40:39.728Z,0.70
2023-01-11T02:43:39.752Z,0.40
2023-01-11T02:46:16.194Z,0.50
2023-01-11T02:49:05.766Z,0.40
2023-01-11T02:52:05.636Z,0.38
2023-01-11T02:54:34.958Z,0.77
2023-01-11T02:57:03.945Z,0.30
2023-01-11T02:59:33.613Z,0.40
2023-01-11T03:02:02.631Z,0.40
2023-01-11T03:04:38.155Z,0.68
2023-01-11T03:07:40.056Z,0.40
2023-01-11T03:14:56.019Z,0.60
2023-01-11T03:17:54.642Z,0.70
2023-01-11T03:20:33.700Z,0.63
2023-01-11T03:23:23.195Z,0.45
2023-01-11T03:26:24.452Z,0.43
2023-01-11T03:29:10.542Z,0.50
2023-01-11T03:31:51.472Z,0.40
2023-01-11T03:34:21.839Z,0.57
2023-01-11T03:36:54.461Z,0.50
2023-01-11T03:39:34.888Z,0.70
2023-01-11T03:42:04.705Z,0.60
2023-01-11T03:44:35.664Z,0.52
2023-01-11T03:47:07.546Z,0.95
2023-01-11T03:49:52.364Z,0.60
2023-01-11T03:52:25.836Z,0.68
2023-01-11T03:54:59.799Z,0.50
2023-01-11T03:57:34.968Z,0.50
2023-01-11T04:00:04.159Z,0.50
2023-01-11T04:02:39.028Z,0.60
2023-01-11T04:05:08.219Z,0.60
2023-01-11T04:07:36.107Z,0.70
2023-01-11T04:10:07.830Z,0.43
2023-01-11T04:12:35.533Z,0.45
2023-01-11T04:15:05.290Z,0.40
2023-01-11T04:17:33.456Z,0.55
2023-01-11T04:20:01.412Z,0.70
2023-01-11T04:22:29.232Z,0.77
2023-01-11T04:24:56.922Z,0.68
2023-01-11T04:27:36.819Z,0.60
2023-01-11T04:30:05.264Z,0.75
2023-01-11T04:32:33.220Z,0.47
2023-01-11T04:35:00.970Z,0.50
2023-01-11T04:37:28.636Z,0.40
2023-01-11T04:39:56.300Z,0.63
2023-01-11T04:42:25.084Z,0.73
2023-01-11T04:44:53.536Z,0.80
2023-01-11T04:47:22.804Z,0.38
2023-01-11T04:49:51.228Z,0.68
2023-01-11T04:52:20.307Z,0.50
2023-01-11T04:54:48.844Z,0.50
2023-01-11T04:57:17.849Z,0.80
2023-01-11T04:59:48.237Z,0.50
2023-01-11T05:02:17.261Z,0.50
2023-01-11T05:04:50.761Z,0.63
2023-01-11T05:07:18.442Z,0.50
2023-01-11T05:09:46.348Z,0.40
2023-01-11T05:12:14.156Z,0.38
2023-01-11T05:14:42.092Z,0.40
2023-01-11T05:17:15.079Z,0.52
2023-01-11T05:19:44.101Z,0.50
2023-01-11T05:22:12.005Z,0.50
2023-01-11T05:24:39.878Z,0.85
2023-01-11T05:27:07.939Z,0.57
2023-01-11T05:29:35.835Z,0.30
2023-01-11T05:32:03.771Z,0.40
2023-01-11T05:34:31.620Z,0.40
2023-01-11T05:36:59.560Z,0.60
2023-01-11T05:39:27.706Z,0.50
2023-01-11T05:41:55.575Z,0.20
2023-01-11T05:44:41.969Z,0.43
2023-01-11T05:47:09.774Z,0.40
2023-01-11T05:49:37.548Z,0.52
2023-01-11T05:52:05.603Z,0.47
2023-01-11T05:54:33.434Z,0.60
2023-01-11T05:57:01.316Z,0.40
2023-01-11T05:59:32.045Z,0.40
2023-01-11T06:02:00.333Z,0.40
2023-01-11T06:04:28.439Z,0.35
2023-01-11T06:06:56.220Z,0.30
2023-01-11T06:09:24.013Z,0.20
2023-01-11T06:11:51.979Z,0.30
2023-01-11T06:14:19.919Z,0.40
2023-01-11T06:16:47.925Z,0.20
2023-01-11T06:19:16.022Z,0.25
2023-01-11T06:21:43.919Z,0.22
2023-01-11T06:24:11.734Z,0.15
2023-01-11T06:26:39.816Z,0.20
2023-01-11T06:29:07.725Z,0.15
2023-01-11T06:31:36.032Z,0.20
2023-01-11T06:34:04.000Z,0.55
2023-01-11T06:36:32.000Z,0.20
2023-01-11T06:38:59.781Z,0.30
2023-01-11T06:41:29.040Z,0.30
2023-01-11T06:43:56.818Z,0.30
2023-01-11T06:46:27.505Z,0.30
2023-01-11T06:48:58.032Z,0.20
2023-01-11T06:51:25.799Z,0.40
2023-01-11T06:53:53.517Z,0.35
2023-01-11T06:56:21.454Z,0.10
2023-01-11T06:58:49.327Z,0.30
2023-01-11T07:01:17.983Z,0.20
2023-01-11T07:03:48.789Z,0.43
2023-01-11T07:06:17.016Z,0.20
2023-01-11T07:08:44.920Z,0.20
2023-01-11T07:11:12.904Z,0.20
2023-01-11T07:13:40.709Z,0.30
2023-01-11T07:16:08.659Z,0.20
2023-01-11T07:18:37.545Z,0.30
2023-01-11T07:21:05.394Z,0.20
2023-01-11T07:23:33.117Z,0.20
2023-01-11T07:26:01.377Z,0.17
2023-01-11T07:28:30.798Z,0.30
2023-01-11T07:30:59.880Z,0.30
2023-01-11T07:33:28.136Z,0.30
2023-01-11T07:35:56.380Z,0.20
2023-01-11T07:38:24.251Z,0.32
2023-01-11T07:40:52.039Z,0.10
2023-01-11T07:43:23.378Z,0.30
2023-01-11T07:48:25.158Z,0.60
2023-01-11T07:50:54.126Z,0.40
2023-01-11T07:53:25.735Z,0.28
2023-01-11T07:55:56.965Z,0.25
2023-01-11T07:58:25.063Z,0.40
2023-01-11T08:00:53.010Z,0.55
2023-01-11T08:03:21.059Z,0.50
2023-01-11T08:05:52.869Z,0.40
2023-01-11T08:08:21.053Z,0.50
2023-01-11T08:11:09.081Z,0.70
2023-01-11T08:13:55.626Z,0.40
2023-01-11T08:16:23.873Z,0.30
2023-01-11T08:18:52.993Z,0.15
2023-01-11T08:21:21.543Z,0.25
2023-01-11T08:23:49.406Z,0.50
2023-01-11T08:26:18.237Z,0.30
2023-01-11T08:28:46.750Z,0.40
2023-01-11T08:31:14.745Z,0.40
2023-01-11T08:33:42.975Z,0.38
2023-01-11T08:36:12.554Z,0.10
2023-01-11T08:38:41.155Z,0.10
2023-01-11T08:41:11.713Z,0.40
2023-01-11T08:43:40.313Z,0.20
2023-01-11T08:46:09.204Z,0.40
2023-01-11T08:48:37.393Z,0.10
2023-01-11T08:51:06.004Z,0.30
2023-01-11T08:53:33.952Z,0.45
2023-01-11T08:56:01.742Z,0.50
2023-01-11T08:58:29.597Z,0.38
2023-01-11T09:01:02.845Z,0.30
2023-01-11T09:03:31.201Z,0.50
2023-01-11T09:06:03.429Z,0.50
2023-01-11T09:08:31.426Z,0.22
2023-01-11T09:11:00.274Z,0.50
2023-01-11T09:13:28.585Z,0.30
2023-01-11T09:15:57.968Z,0.28
2023-01-11T09:18:27.346Z,0.17
2023-01-11T09:20:55.547Z,0.10
2023-01-11T09:23:23.463Z,0.52
2023-01-11T09:25:51.612Z,0.10
2023-01-11T09:28:19.661Z,0.47
2023-01-11T09:30:47.548Z,0.10
2023-01-11T09:33:15.352Z,0.10
2023-01-11T09:35:43.097Z,0.20
2023-01-11T09:38:10.925Z,0.10
2023-01-11T09:41:12.077Z,0.20
2023-01-11T09:43:51.234Z,0.10
2023-01-11T09:46:20.223Z,0.10
2023-01-11T09:48:58.961Z,0.38
2023-01-11T09:51:37.661Z,0.17
2023-01-11T09:54:10.628Z,0.20
2023-01-11T09:56:46.511Z,0.10
2023-01-11T09:59:47.016Z,0.10
2023-01-11T10:02:39.756Z,0.10
2023-01-11T10:05:36.950Z,0.40
2023-01-11T10:18:26.281Z,0.20
2023-01-11T10:18:33.760Z,0.10
2023-01-11T10:20:47.775Z,0.10
2023-01-11T10:23:21.749Z,0.20
2023-01-11T10:25:55.089Z,0.20
2023-01-11T10:28:36.009Z,0.10
2023-01-11T10:31:30.140Z,0.10
2023-01-11T10:34:04.871Z,0.20
2023-01-11T10:36:53.601Z,0.17
2023-01-11T10:40:01.571Z,0.10
2023-01-11T10:42:31.399Z,0.20
2023-01-11T10:45:26.216Z,0.20
2023-01-11T10:48:23.957Z,0.00
2023-01-11T10:51:01.871Z,0.10
2023-01-11T10:53:31.901Z,0.10
2023-01-11T10:56:34.046Z,0.10
2023-01-11T10:59:31.479Z,0.10
2023-01-11T11:01:59.485Z,0.20
2023-01-11T11:04:55.350Z,0.20
2023-01-11T11:07:25.263Z,0.20
2023-01-11T11:10:04.530Z,0.20
2023-01-11T11:12:39.225Z,0.25
2023-01-11T11:15:17.627Z,0.10
2023-01-11T11:17:51.998Z,0.10
2023-01-11T11:20:25.401Z,0.10
2023-01-11T11:22:55.124Z,0.10
2023-01-11T11:25:27.749Z,0.32
2023-01-11T11:28:06.195Z,0.22
2023-01-11T11:30:39.405Z,0.13
2023-01-11T11:33:15.579Z,0.10
2023-01-11T11:35:46.652Z,0.20
2023-01-11T11:38:23.966Z,0.10
2023-01-11T11:41:13.052Z,0.10
2023-01-11T11:43:42.339Z,0.20
2023-01-11T11:46:26.959Z,0.20
2023-01-11T11:49:16.111Z,0.20
2023-01-11T11:51:45.944Z,0.10
2023-01-11T11:54:33.019Z,0.15
2023-01-11T11:57:27.306Z,0.20
2023-01-11T12:00:26.147Z,0.20
2023-01-11T12:03:21.933Z,0.15
2023-01-11T12:06:02.344Z,0.20
2023-01-11T12:08:32.982Z,0.40
2023-01-11T12:11:03.059Z,0.30
2023-01-11T12:13:36.253Z,0.30
2023-01-11T12:16:07.630Z,0.20
2023-01-11T12:18:41.547Z,0.32
2023-01-11T12:21:30.643Z,0.20
2023-01-11T12:24:17.285Z,0.30
2023-01-11T12:27:11.772Z,0.30
2023-01-11T12:30:12.479Z,0.20
2023-01-11T12:33:02.883Z,0.30
2023-01-11T12:35:46.724Z,0.15
2023-01-11T12:38:29.470Z,0.30
2023-01-11T12:41:43.594Z,0.40
2023-01-11T12:44:14.732Z,0.30
2023-01-11T12:47:08.743Z,0.30
2023-01-11T12:50:04.089Z,0.55
2023-01-11T12:52:46.934Z,0.40
2023-01-11T12:55:26.752Z,0.40
2023-01-11T12:58:08.645Z,0.47
2023-01-11T13:01:13.130Z,0.30
2023-01-11T13:04:06.914Z,0.30
2023-01-11T13:06:41.489Z,0.40
2023-01-11T13:09:34.734Z,0.30
2023-01-11T13:12:11.598Z,0.38
2023-01-11T13:14:42.762Z,0.47
2023-01-11T13:17:38.685Z,0.43
2023-01-11T13:20:16.200Z,0.80
2023-01-11T13:23:04.879Z,0.30
2023-01-11T13:25:40.169Z,0.77
2023-01-11T13:28:29.772Z,0.57
2023-01-11T13:30:58.222Z,0.50
2023-01-11T13:33:28.362Z,0.60
2023-01-11T13:36:09.647Z,0.50
2023-01-11T13:38:47.865Z,0.40
2023-01-11T13:41:22.423Z,0.60
2023-01-11T13:44:04.728Z,0.68
2023-01-11T13:46:47.602Z,0.80
2023-01-11T13:49:32.816Z,1.10
2023-01-11T13:52:12.010Z,0.73
2023-01-11T13:54:42.575Z,0.75
2023-01-11T13:57:38.820Z,1.30
2023-01-11T14:00:35.047Z,0.95
2023-01-11T14:03:20.513Z,0.88
2023-01-11T14:06:19.919Z,0.70
2023-01-11T14:09:20.381Z,0.70
2023-01-11T14:12:21.353Z,1.13
2023-01-11T14:15:04.337Z,1.00
2023-01-11T14:17:53.957Z,0.65
2023-01-11T14:20:43.420Z,0.73
2023-01-11T14:23:16.153Z,0.80
2023-01-11T14:26:17.201Z,1.25
2023-01-11T14:29:24.305Z,0.97
2023-01-11T14:32:13.099Z,0.80
2023-01-11T14:34:47.481Z,1.08
2023-01-11T14:37:21.312Z,1.00
2023-01-11T14:40:13.201Z,1.13
2023-01-11T14:45:47.280Z,1.13
2023-01-11T14:48:18.456Z,1.00
2023-01-11T14:50:49.175Z,1.58
2023-01-11T14:53:29.398Z,1.33
2023-01-11T14:55:57.311Z,1.40
2023-01-11T14:58:33.876Z,1.33
2023-01-11T15:01:03.728Z,1.20
2023-01-11T15:03:44.181Z,1.67
2023-01-11T15:06:17.213Z,1.23
2023-01-11T15:08:50.630Z,1.42
2023-01-11T15:11:33.615Z,1.25
2023-01-11T15:14:24.384Z,1.40
2023-01-11T15:17:17.840Z,1.40
2023-01-11T15:19:46.396Z,1.50
2023-01-11T15:22:31.711Z,1.40
2023-01-11T15:25:02.923Z,1.50
2023-01-11T15:27:39.183Z,1.50
2023-01-11T15:30:29.155Z,1.58
2023-01-11T15:33:19.096Z,1.60
2023-01-11T15:35:56.300Z,1.63
2023-01-11T15:38:53.212Z,1.50
2023-01-11T15:42:03.435Z,1.40
2023-01-11T15:44:54.559Z,2.00
2023-01-11T15:47:39.077Z,1.60
2023-01-11T15:50:25.686Z,1.52
2023-01-11T15:53:24.444Z,1.75
2023-01-11T15:56:23.134Z,1.50
2023-01-11T15:59:14.817Z,1.80
2023-01-11T16:02:14.639Z,2.58
2023-01-11T16:05:01.165Z,1.90
2023-01-11T16:07:49.186Z,2.40
2023-01-11T16:10:38.671Z,1.80
2023-01-11T16:13:28.866Z,2.13
2023-01-11T16:16:21.457Z,1.77
2023-01-11T16:19:15.512Z,1.73
2023-01-11T16:21:45.963Z,1.50
2023-01-11T16:24:22.522Z,1.90
2023-01-11T16:27:00.401Z,1.70
2023-01-11T16:29:35.770Z,2.47
2023-01-11T16:32:17.328Z,2.03
2023-01-11T16:34:47.320Z,2.10
2023-01-11T16:37:35.407Z,2.03
2023-01-11T16:40:13.645Z,2.00
2023-01-11T16:43:07.017Z,1.50
2023-01-11T16:45:55.119Z,1.80
2023-01-11T16:48:28.407Z,1.83
2023-01-11T16:51:19.649Z,1.80
2023-01-11T16:53:56.306Z,2.33
2023-01-11T16:56:24.712Z,3.47
2023-01-11T16:59:19.184Z,2.50
2023-01-11T17:01:56.663Z,2.50
2023-01-11T17:04:30.492Z,2.45
2023-01-11T17:07:28.261Z,2.80
2023-01-11T17:10:16.603Z,2.42
2023-01-11T17:12:47.426Z,2.25
2023-01-11T17:15:52.123Z,3.13
2023-01-11T17:18:20.070Z,2.75
2023-01-11T17:20:53.550Z,3.05
2023-01-11T17:23:21.746Z,2.83
2023-01-11T17:25:58.711Z,3.05
2023-01-11T17:28:26.502Z,2.53
2023-01-11T17:30:54.997Z,3.10
2023-01-11T17:33:28.516Z,3.75
2023-01-11T17:35:56.488Z,2.83
2023-01-11T17:38:26.588Z,2.70
2023-01-11T17:40:58.021Z,3.25
2023-01-11T17:43:46.592Z,3.38
2023-01-11T17:46:25.147Z,3.05
2023-01-11T17:48:57.970Z,3.00
2023-01-11T17:51:31.794Z,4.00
2023-01-11T17:54:00.124Z,3.50
2023-01-11T17:56:38.070Z,4.10
2023-01-11T17:59:30.112Z,3.97
2023-01-11T18:02:10.120Z,4.18
2023-01-11T18:04:37.827Z,4.38
2023-01-11T18:07:08.096Z,3.95
2023-01-11T18:09:40.673Z,3.35
2023-01-11T18:12:37.595Z,4.18
2023-01-11T18:15:06.704Z,3.40
2023-01-11T18:17:35.834Z,3.58
2023-01-11T18:20:16.774Z,3.45
2023-01-11T18:23:16.599Z,3.88
2023-01-11T18:25:46.225Z,3.85
2023-01-11T18:28:21.428Z,3.55
2023-01-11T18:30:54.452Z,3.72
2023-01-11T18:33:25.193Z,3.90
2023-01-11T18:35:55.754Z,3.35
2023-01-11T18:38:26.292Z,3.58
2023-01-11T18:40:54.800Z,3.00
2023-01-11T18:43:28.591Z,3.30
2023-01-11T18:45:57.183Z,3.70
2023-01-11T18:48:25.212Z,3.80
2023-01-11T18:50:54.652Z,3.80
2023-01-11T18:53:23.841Z,4.00
2023-01-11T18:55:51.773Z,3.25
2023-01-11T18:58:19.599Z,3.13
2023-01-11T19:00:47.419Z,3.05
2023-01-11T19:05:50.777Z,2.72
2023-01-11T19:08:21.343Z,2.97
2023-01-11T19:10:50.799Z,2.30
2023-01-11T19:13:19.654Z,2.50
2023-01-11T19:15:47.920Z,2.78
2023-01-11T19:18:16.671Z,2.55
2023-01-11T19:20:44.683Z,2.80
2023-01-11T19:23:12.571Z,2.30
2023-01-11T19:25:41.647Z,3.25
2023-01-11T19:28:09.595Z,2.60
2023-01-11T19:30:39.529Z,2.90
2023-01-11T19:33:07.283Z,2.30
2023-01-11T19:35:39.216Z,2.30
2023-01-11T19:38:07.275Z,2.30
2023-01-11T19:40:35.365Z,2.20
2023-01-11T19:43:03.380Z,2.00
2023-01-11T19:45:31.286Z,2.60
2023-01-11T19:47:59.854Z,1.88
2023-01-11T19:50:27.827Z,2.10
2023-01-11T19:52:55.552Z,1.92
2023-01-11T19:55:23.382Z,2.40
2023-01-11T19:57:51.150Z,1.92
2023-01-11T20:00:20.803Z,2.00
2023-01-11T20:02:48.580Z,1.80
2023-01-11T20:05:16.677Z,2.03
2023-01-11T20:07:44.550Z,2.25
2023-01-11T20:10:12.545Z,1.52
2023-01-11T20:12:40.382Z,1.90
2023-01-11T20:15:08.814Z,2.20
2023-01-11T20:17:38.029Z,2.28
2023-01-11T20:20:06.997Z,2.17
2023-01-11T20:22:34.971Z,2.13
2023-01-11T20:25:02.956Z,1.83
2023-01-11T20:27:30.991Z,1.77
2023-01-11T20:29:58.743Z,1.98
2023-01-11T20:32:40.529Z,1.98
2023-01-11T20:35:09.859Z,1.77
2023-01-11T20:37:37.736Z,1.75
2023-01-11T20:40:06.132Z,1.63
2023-01-11T20:42:34.704Z,2.30
2023-01-11T20:45:02.592Z,1.63
2023-01-11T20:47:30.650Z,1.92
2023-01-11T20:50:01.311Z,1.83
2023-01-11T20:52:29.210Z,2.13
2023-01-11T20:54:57.095Z,1.60
2023-01-11T20:57:24.925Z,2.05
2023-01-11T20:59:54.559Z,1.60
2023-01-11T21:02:22.525Z,1.98
2023-01-11T21:04:53.727Z,1.70
2023-01-11T21:07:21.428Z,2.53
2023-01-11T21:09:49.158Z,1.60
2023-01-11T21:12:18.707Z,1.70
2023-01-11T21:14:46.476Z,1.77
2023-01-11T21:17:14.453Z,1.75
2023-01-11T21:19:43.949Z,1.95
2023-01-11T21:22:11.920Z,1.65
2023-01-11T21:24:42.135Z,1.60
2023-01-11T21:27:10.085Z,1.88
2023-01-11T21:29:38.096Z,1.80
2023-01-11T21:32:06.658Z,1.60
2023-01-11T21:34:34.412Z,2.03
2023-01-11T21:37:02.205Z,2.08
2023-01-11T21:39:31.576Z,2.30
2023-01-11T21:41:59.942Z,1.63
2023-01-11T21:44:35.483Z,1.85
2023-01-11T21:47:05.091Z,1.73
2023-01-11T21:49:33.966Z,1.58
2023-01-11T21:52:01.832Z,2.10
2023-01-11T21:54:29.673Z,1.98
2023-01-11T21:56:57.632Z,1.95
2023-01-11T21:59:25.403Z,1.65
2023-01-11T22:01:53.411Z,2.20
2023-01-11T22:04:21.712Z,2.03
2023-01-11T22:06:56.173Z,1.52
2023-01-11T22:09:27.415Z,1.55
2023-01-11T22:11:55.772Z,1.40
2023-01-11T22:14:23.699Z,2.03
2023-01-11T22:16:52.395Z,1.83
2023-01-11T22:19:20.326Z,1.85
2023-01-11T22:21:51.337Z,1.42
2023-01-11T22:24:19.211Z,1.70
2023-01-11T22:26:47.173Z,2.00
2023-01-11T22:29:15.534Z,1.85
2023-01-11T22:31:49.883Z,1.65
2023-01-11T22:34:18.481Z,1.20
2023-01-11T22:36:46.752Z,1.85
2023-01-11T22:39:15.992Z,1.42
2023-01-11T22:41:46.131Z,2.03
2023-01-11T22:44:14.493Z,1.50
2023-01-11T22:46:43.670Z,1.42
2023-01-11T22:49:12.386Z,1.20
2023-01-11T22:51:41.927Z,1.40
2023-01-11T22:54:10.204Z,1.40
2023-01-11T22:56:38.109Z,1.17
2023-01-11T22:59:06.010Z,1.55
2023-01-11T23:01:35.768Z,1.30
2023-01-11T23:04:05.195Z,1.77
2023-01-11T23:06:35.368Z,1.20
2023-01-11T23:09:04.215Z,1.60
2023-01-11T23:11:54.235Z,1.30
2023-01-11T23:14:22.625Z,1.00
2023-01-11T23:16:50.848Z,1.10
2023-01-11T23:19:20.626Z,1.15
2023-01-11T23:21:48.536Z,1.10
2023-01-11T23:24:17.509Z,1.23
2023-01-11T23:26:45.785Z,1.08
2023-01-11T23:29:13.992Z,1.65
2023-01-11T23:31:43.110Z,1.23
2023-01-11T23:34:12.392Z,1.38
2023-01-11T23:36:42.137Z,1.10
2023-01-11T23:39:15.300Z,1.20
2023-01-11T23:42:01.866Z,1.65
2023-01-11T23:44:30.109Z,1.02
2023-01-11T23:47:16.367Z,1.30
2023-01-11T23:49:44.435Z,1.55
2023-01-11T23:52:12.743Z,1.08
2023-01-11T23:54:41.478Z,1.75
2023-01-11T23:57:12.455Z,1.40
2023-01-11T23:59:41.305Z,1.20
